createdAt,value
2018-10-16T00:00:27.925Z,13.65
2018-10-16T00:02:57.240Z,14.07
2018-10-16T00:05:26.480Z,14.33
2018-10-16T00:07:55.722Z,13.90
2018-10-16T00:10:30.189Z,13.60
2018-10-16T00:12:59.427Z,13.43
2018-10-16T00:15:28.818Z,12.98
2018-10-16T00:17:57.989Z,14.30
2018-10-16T00:20:27.238Z,13.68
2018-10-16T00:22:56.492Z,14.20
2018-10-16T00:25:25.527Z,13.73
2018-10-16T00:27:54.786Z,14.03
2018-10-16T00:30:24.099Z,14.37
2018-10-16T00:32:53.387Z,14.18
2018-10-16T00:35:22.515Z,13.78
2018-10-16T00:37:51.688Z,13.38
2018-10-16T00:40:20.803Z,13.80
2018-10-16T00:42:50.106Z,13.68
2018-10-16T00:45:19.299Z,13.53
2018-10-16T00:47:48.468Z,12.90
2018-10-16T00:50:17.595Z,13.03
2018-10-16T00:52:46.760Z,12.73
2018-10-16T00:55:15.996Z,13.70
2018-10-16T00:57:45.151Z,13.68
2018-10-16T01:00:14.405Z,13.55
2018-10-16T01:02:44.127Z,14.03
2018-10-16T01:05:13.810Z,14.33
2018-10-16T01:07:43.478Z,14.53
2018-10-16T01:10:13.275Z,14.78
2018-10-16T01:12:42.565Z,13.88
2018-10-16T01:15:12.388Z,14.03
2018-10-16T01:17:41.982Z,14.43
2018-10-16T01:20:13.040Z,13.62
2018-10-16T01:22:42.548Z,15.58
2018-10-16T01:25:12.600Z,15.35
2018-10-16T01:27:41.880Z,13.63
2018-10-16T01:30:12.351Z,14.13
2018-10-16T01:32:41.599Z,14.23
2018-10-16T01:35:12.217Z,14.53
2018-10-16T01:37:41.913Z,14.63
2018-10-16T01:40:11.738Z,14.03
2018-10-16T01:42:40.940Z,13.75
2018-10-16T01:45:10.748Z,13.08
2018-10-16T01:47:39.955Z,14.03
2018-10-16T01:50:09.454Z,14.13
2018-10-16T01:52:38.564Z,13.75
2018-10-16T01:55:07.706Z,13.85
2018-10-16T01:57:36.860Z,14.00
2018-10-16T02:00:06.385Z,13.58
2018-10-16T02:02:35.850Z,14.18
2018-10-16T02:05:05.704Z,13.85
2018-10-16T02:07:34.975Z,13.75
2018-10-16T02:10:04.310Z,13.50
2018-10-16T02:12:33.665Z,12.50
2018-10-16T02:15:03.007Z,12.80
2018-10-16T02:17:32.274Z,13.60
2018-10-16T02:20:01.502Z,13.22
2018-10-16T02:22:30.770Z,13.18
2018-10-16T02:25:00.098Z,13.60
2018-10-16T02:27:29.268Z,13.65
2018-10-16T02:29:58.494Z,13.62
2018-10-16T02:32:27.868Z,13.70
2018-10-16T02:34:56.996Z,13.40
2018-10-16T02:37:26.172Z,12.88
2018-10-16T02:39:55.391Z,13.20
2018-10-16T02:42:24.732Z,13.22
2018-10-16T02:44:53.880Z,13.25
2018-10-16T02:47:23.048Z,12.80
2018-10-16T02:49:52.182Z,12.68
2018-10-16T02:52:21.471Z,12.50
2018-10-16T02:54:50.645Z,12.37
2018-10-16T02:57:19.876Z,11.97
2018-10-16T02:59:49.136Z,13.03
2018-10-16T03:02:18.356Z,12.53
2018-10-16T03:04:47.532Z,12.82
2018-10-16T03:07:16.778Z,12.90
2018-10-16T03:09:45.978Z,12.33
2018-10-16T03:12:15.161Z,13.10
2018-10-16T03:14:44.320Z,13.18
2018-10-16T03:17:13.451Z,12.90
2018-10-16T03:19:42.609Z,12.70
2018-10-16T03:22:11.639Z,12.65
2018-10-16T03:24:56.838Z,12.23
2018-10-16T03:27:26.095Z,12.53
2018-10-16T03:29:55.384Z,11.80
2018-10-16T03:32:24.706Z,12.78
2018-10-16T03:34:53.983Z,12.45
2018-10-16T03:37:23.359Z,11.90
2018-10-16T03:39:52.562Z,12.60
2018-10-16T03:42:21.808Z,12.23
2018-10-16T03:44:50.976Z,13.08
2018-10-16T03:47:20.407Z,12.78
2018-10-16T03:49:49.574Z,12.68
2018-10-16T03:52:18.699Z,12.35
2018-10-16T03:54:47.869Z,12.30
2018-10-16T03:57:17.164Z,12.37
2018-10-16T03:59:46.261Z,12.88
2018-10-16T04:02:15.549Z,11.97
2018-10-16T04:04:44.963Z,12.03
2018-10-16T04:07:14.089Z,12.13
2018-10-16T04:09:43.455Z,12.10
2018-10-16T04:12:12.793Z,12.73
2018-10-16T04:14:42.047Z,12.58
2018-10-16T04:17:11.071Z,12.75
2018-10-16T04:19:40.258Z,12.60
2018-10-16T04:22:09.827Z,12.03
2018-10-16T04:24:39.140Z,12.85
2018-10-16T04:27:08.285Z,12.33
2018-10-16T04:29:37.648Z,12.60
2018-10-16T04:32:06.877Z,12.47
2018-10-16T04:34:36.154Z,12.13
2018-10-16T04:37:05.370Z,12.28
2018-10-16T04:39:34.651Z,12.05
2018-10-16T04:42:03.982Z,11.65
2018-10-16T04:44:33.148Z,11.83
2018-10-16T04:47:02.373Z,11.85
2018-10-16T04:49:31.531Z,12.07
2018-10-16T04:52:00.764Z,12.60
2018-10-16T04:54:30.159Z,11.63
2018-10-16T04:56:59.458Z,10.80
2018-10-16T04:59:28.731Z,10.70
2018-10-16T05:01:58.068Z,11.30
2018-10-16T05:04:27.493Z,11.08
2018-10-16T05:06:56.774Z,11.20
2018-10-16T05:09:25.934Z,11.17
2018-10-16T05:11:55.927Z,11.63
2018-10-16T05:14:25.292Z,12.10
2018-10-16T05:16:54.714Z,11.90
2018-10-16T05:19:24.163Z,11.50
2018-10-16T05:21:53.595Z,11.45
2018-10-16T05:24:22.791Z,11.45
2018-10-16T05:26:52.077Z,11.40
2018-10-16T05:29:21.391Z,11.57
2018-10-16T05:31:50.701Z,11.73
2018-10-16T05:34:19.879Z,11.97
2018-10-16T05:36:49.150Z,10.90
2018-10-16T05:39:18.509Z,10.77
2018-10-16T05:41:47.775Z,11.00
2018-10-16T05:44:17.109Z,11.40
2018-10-16T05:46:46.278Z,11.20
2018-10-16T05:49:15.711Z,10.85
2018-10-16T05:51:45.091Z,11.40
2018-10-16T05:54:14.611Z,10.88
2018-10-16T05:56:43.855Z,11.25
2018-10-16T05:59:13.183Z,11.48
2018-10-16T06:01:42.615Z,11.03
2018-10-16T06:07:03.787Z,10.45
2018-10-16T06:09:34.050Z,10.70
2018-10-16T06:12:04.649Z,11.25
2018-10-16T06:14:34.225Z,11.97
2018-10-16T06:17:05.090Z,11.45
2018-10-16T06:19:34.532Z,11.97
2018-10-16T06:22:04.733Z,11.83
2018-10-16T06:24:34.275Z,12.47
2018-10-16T06:27:03.711Z,11.85
2018-10-16T06:29:33.002Z,13.18
2018-10-16T06:32:02.458Z,12.37
2018-10-16T06:34:31.751Z,12.45
2018-10-16T06:37:01.100Z,13.30
2018-10-16T06:39:30.360Z,13.08
2018-10-16T06:41:59.623Z,12.90
2018-10-16T06:44:28.856Z,12.23
2018-10-16T06:46:58.190Z,12.68
2018-10-16T06:49:27.356Z,12.85
2018-10-16T06:51:56.659Z,13.90
2018-10-16T06:54:26.169Z,13.43
2018-10-16T06:56:55.407Z,13.85
2018-10-16T06:59:24.642Z,13.55
2018-10-16T07:01:53.904Z,13.78
2018-10-16T07:04:23.208Z,13.83
2018-10-16T07:06:52.607Z,13.62
2018-10-16T07:09:21.943Z,13.98
2018-10-16T07:11:51.316Z,14.60
2018-10-16T07:14:20.562Z,14.63
2018-10-16T07:16:49.840Z,14.10
2018-10-16T07:19:19.132Z,14.45
2018-10-16T07:21:48.433Z,14.43
2018-10-16T07:24:17.871Z,14.47
2018-10-16T07:26:47.265Z,14.85
2018-10-16T07:29:16.630Z,14.15
2018-10-16T07:31:45.956Z,13.95
2018-10-16T07:34:15.425Z,14.53
2018-10-16T07:36:44.665Z,14.53
2018-10-16T07:39:14.198Z,14.45
2018-10-16T07:41:43.746Z,14.83
2018-10-16T07:44:13.525Z,13.93
2018-10-16T07:46:42.874Z,14.33
2018-10-16T07:49:13.593Z,14.07
2018-10-16T07:51:42.921Z,14.10
2018-10-16T07:54:12.098Z,13.95
2018-10-16T07:56:41.308Z,14.25
2018-10-16T07:59:10.582Z,14.10
2018-10-16T08:01:39.715Z,14.35
2018-10-16T08:04:08.968Z,13.10
2018-10-16T08:06:38.303Z,14.40
2018-10-16T08:09:13.518Z,13.93
2018-10-16T08:11:45.732Z,13.72
2018-10-16T08:14:15.960Z,14.68
2018-10-16T08:16:46.229Z,14.83
2018-10-16T08:19:15.588Z,14.13
2018-10-16T08:21:45.639Z,13.25
2018-10-16T08:24:14.945Z,15.05
2018-10-16T08:26:50.591Z,14.05
2018-10-16T08:29:19.784Z,14.35
2018-10-16T08:31:48.895Z,13.32
2018-10-16T08:34:18.088Z,13.93
2018-10-16T08:36:47.232Z,13.77
2018-10-16T08:39:19.212Z,13.90
2018-10-16T08:44:09.568Z,14.65
2018-10-16T08:46:49.835Z,14.85
2018-10-16T08:49:29.847Z,15.03
2018-10-16T08:51:59.451Z,14.45
2018-10-16T08:54:28.750Z,14.55
2018-10-16T08:56:57.999Z,14.33
2018-10-16T08:59:27.409Z,14.80
2018-10-16T09:01:56.555Z,13.83
2018-10-16T09:04:25.777Z,13.62
2018-10-16T09:06:55.067Z,14.05
2018-10-16T09:09:24.296Z,13.28
2018-10-16T09:11:53.649Z,12.70
2018-10-16T09:14:22.920Z,11.90
2018-10-16T09:16:52.156Z,13.08
2018-10-16T09:19:21.475Z,12.00
2018-10-16T09:21:50.759Z,11.90
2018-10-16T09:24:19.984Z,12.33
2018-10-16T09:26:49.143Z,12.03
2018-10-16T09:29:18.592Z,11.35
2018-10-16T09:31:47.842Z,13.00
2018-10-16T09:34:16.970Z,11.45
2018-10-16T09:36:46.175Z,11.53
2018-10-16T09:39:15.379Z,11.03
2018-10-16T09:41:44.631Z,12.18
2018-10-16T09:44:13.867Z,10.48
2018-10-16T09:46:43.036Z,11.63
2018-10-16T09:49:12.559Z,11.03
2018-10-16T09:51:41.847Z,10.48
2018-10-16T09:54:10.971Z,11.40
2018-10-16T09:56:40.131Z,10.35
2018-10-16T09:59:09.400Z,9.93
2018-10-16T10:01:48.241Z,10.55
2018-10-16T10:04:17.471Z,11.05
2018-10-16T10:06:46.626Z,10.38
2018-10-16T10:09:15.784Z,10.13
2018-10-16T10:11:45.145Z,9.80
2018-10-16T10:14:14.269Z,9.85
2018-10-16T10:16:43.563Z,9.85
2018-10-16T10:19:12.767Z,9.38
2018-10-16T10:21:41.928Z,10.10
2018-10-16T10:24:11.073Z,9.23
2018-10-16T10:26:40.222Z,9.65
2018-10-16T10:29:09.352Z,9.85
2018-10-16T10:31:38.636Z,9.98
2018-10-16T10:34:07.852Z,9.00
2018-10-16T10:36:37.018Z,9.53
2018-10-16T10:39:09.781Z,8.68
2018-10-16T10:41:39.098Z,8.40
2018-10-16T10:44:08.840Z,8.80
2018-10-16T10:46:38.300Z,8.78
2018-10-16T10:49:07.449Z,8.05
2018-10-16T10:51:36.997Z,8.13
2018-10-16T10:54:06.132Z,8.58
2018-10-16T10:56:35.366Z,7.90
2018-10-16T10:59:04.532Z,7.90
2018-10-16T11:01:33.797Z,7.90
2018-10-16T11:04:03.036Z,8.33
2018-10-16T11:06:32.294Z,7.90
2018-10-16T11:09:01.582Z,7.62
2018-10-16T11:11:30.688Z,8.30
2018-10-16T11:13:59.830Z,7.35
2018-10-16T11:16:29.082Z,7.12
2018-10-16T11:18:58.325Z,7.03
2018-10-16T11:21:27.510Z,7.45
2018-10-16T11:23:56.572Z,7.47
2018-10-16T11:26:25.822Z,7.47
2018-10-16T11:28:55.070Z,7.73
2018-10-16T11:31:24.295Z,7.60
2018-10-16T11:33:53.595Z,7.30
2018-10-16T11:36:22.900Z,7.47
2018-10-16T11:38:52.182Z,7.28
2018-10-16T11:41:21.514Z,7.43
2018-10-16T11:43:50.883Z,6.95
2018-10-16T11:46:20.221Z,6.78
2018-10-16T11:48:49.483Z,7.00
2018-10-16T11:51:18.725Z,7.45
2018-10-16T11:53:47.934Z,7.42
2018-10-16T11:56:17.202Z,7.47
2018-10-16T11:58:46.382Z,7.20
2018-10-16T12:01:15.714Z,7.07
2018-10-16T12:03:44.972Z,6.70
2018-10-16T12:06:14.483Z,7.30
2018-10-16T12:08:43.709Z,7.05
2018-10-16T12:11:12.897Z,7.40
2018-10-16T12:13:42.052Z,6.85
2018-10-16T12:16:11.198Z,7.10
2018-10-16T12:18:52.492Z,6.65
2018-10-16T12:21:22.995Z,7.23
2018-10-16T12:23:52.292Z,6.22
2018-10-16T12:26:21.865Z,6.90
2018-10-16T12:28:51.094Z,6.55
2018-10-16T12:31:20.272Z,6.28
2018-10-16T12:33:49.436Z,6.15
2018-10-16T12:36:18.582Z,6.20
2018-10-16T12:38:47.957Z,6.03
2018-10-16T12:41:17.306Z,6.05
2018-10-16T12:43:46.748Z,6.37
2018-10-16T12:46:16.027Z,6.42
2018-10-16T12:48:45.346Z,6.75
2018-10-16T12:51:14.671Z,6.67
2018-10-16T12:53:43.859Z,6.20
2018-10-16T12:56:13.128Z,6.30
2018-10-16T12:58:42.359Z,6.47
2018-10-16T13:01:11.583Z,6.58
2018-10-16T13:03:40.901Z,6.12
2018-10-16T13:06:10.080Z,5.80
2018-10-16T13:08:39.350Z,6.00
2018-10-16T13:11:08.739Z,5.80
2018-10-16T13:13:37.951Z,6.47
2018-10-16T13:16:07.095Z,5.97
2018-10-16T13:18:36.344Z,5.40
2018-10-16T13:21:05.784Z,5.30
2018-10-16T13:23:34.990Z,5.42
2018-10-16T13:26:04.196Z,5.67
2018-10-16T13:28:33.394Z,5.85
2018-10-16T13:31:02.567Z,5.58
2018-10-16T13:33:31.839Z,6.20
2018-10-16T13:36:01.068Z,6.13
2018-10-16T13:38:30.447Z,6.30
2018-10-16T13:40:59.667Z,6.17
2018-10-16T13:43:28.830Z,5.92
2018-10-16T13:45:57.963Z,5.95
2018-10-16T13:48:27.234Z,5.85
2018-10-16T13:50:56.457Z,6.00
2018-10-16T13:53:25.711Z,6.35
2018-10-16T13:55:54.887Z,6.30
2018-10-16T13:58:24.224Z,5.72
2018-10-16T14:00:53.416Z,5.95
2018-10-16T14:03:22.845Z,5.75
2018-10-16T14:05:52.012Z,5.80
2018-10-16T14:08:21.248Z,6.10
2018-10-16T14:10:50.523Z,5.80
2018-10-16T14:13:19.739Z,6.07
2018-10-16T14:15:49.015Z,5.92
2018-10-16T14:18:18.349Z,5.83
2018-10-16T14:20:47.713Z,5.70
2018-10-16T14:23:16.939Z,6.20
2018-10-16T14:25:46.316Z,6.10
2018-10-16T14:28:15.634Z,5.87
2018-10-16T14:30:44.624Z,6.78
2018-10-16T14:33:13.839Z,6.12
2018-10-16T14:35:43.097Z,6.30
2018-10-16T14:38:12.275Z,6.37
2018-10-16T14:40:41.685Z,6.10
2018-10-16T14:43:10.728Z,6.40
2018-10-16T14:45:39.992Z,5.83
2018-10-16T14:48:09.148Z,6.08
2018-10-16T14:50:38.490Z,6.22
2018-10-16T14:53:07.714Z,6.07
2018-10-16T14:55:36.885Z,6.10
2018-10-16T14:58:06.145Z,6.20
2018-10-16T15:00:35.481Z,5.92
2018-10-16T15:03:06.019Z,5.75
2018-10-16T15:05:35.316Z,6.42
2018-10-16T15:08:04.920Z,6.30
2018-10-16T15:10:34.511Z,6.50
2018-10-16T15:13:03.772Z,6.10
2018-10-16T15:15:33.566Z,5.80
2018-10-16T15:18:03.191Z,6.20
2018-10-16T15:20:33.998Z,5.92
2018-10-16T15:23:03.212Z,5.83
2018-10-16T15:25:32.473Z,5.80
2018-10-16T15:28:01.721Z,6.00
2018-10-16T15:30:30.875Z,5.85
2018-10-16T15:33:00.024Z,6.40
2018-10-16T15:35:29.311Z,6.00
2018-10-16T15:37:58.560Z,6.15
2018-10-16T15:40:27.775Z,6.20
2018-10-16T15:42:56.896Z,5.80
2018-10-16T15:45:26.050Z,5.92
2018-10-16T15:47:55.241Z,6.15
2018-10-16T15:50:24.345Z,5.97
2018-10-16T15:52:53.574Z,6.40
2018-10-16T15:55:22.846Z,5.80
2018-10-16T15:57:52.272Z,6.30
2018-10-16T16:00:22.357Z,6.08
2018-10-16T16:02:55.207Z,6.00
2018-10-16T16:05:26.939Z,6.25
2018-10-16T16:08:00.424Z,6.42
2018-10-16T16:10:32.469Z,5.70
2018-10-16T16:13:08.363Z,5.85
2018-10-16T16:15:38.819Z,6.15
2018-10-16T16:18:12.891Z,6.85
2018-10-16T16:20:44.344Z,10.90
2018-10-16T16:23:15.545Z,14.03
2018-10-16T16:25:46.129Z,12.47
2018-10-16T16:28:16.605Z,14.00
2018-10-16T16:30:46.515Z,14.68
2018-10-16T16:33:17.210Z,13.48
2018-10-16T16:35:47.747Z,11.65
2018-10-16T16:38:17.599Z,11.88
2018-10-16T16:40:47.499Z,11.55
2018-10-16T16:43:18.412Z,11.30
2018-10-16T16:45:48.419Z,11.97
2018-10-16T16:48:18.142Z,13.13
2018-10-16T16:50:47.480Z,12.63
2018-10-16T16:53:16.827Z,12.60
2018-10-16T16:55:45.981Z,11.67
2018-10-16T16:58:15.710Z,11.45
2018-10-16T17:00:45.078Z,12.73
2018-10-16T17:03:14.527Z,12.10
2018-10-16T17:05:43.927Z,12.00
2018-10-16T17:08:13.349Z,12.35
2018-10-16T17:10:42.735Z,12.07
2018-10-16T17:13:11.929Z,12.37
2018-10-16T17:15:41.224Z,11.40
2018-10-16T17:18:10.525Z,12.63
2018-10-16T17:20:39.732Z,12.37
2018-10-16T17:23:08.944Z,12.25
2018-10-16T17:25:38.563Z,11.35
2018-10-16T17:28:07.452Z,11.65
2018-10-16T17:30:36.728Z,12.23
2018-10-16T17:33:06.126Z,11.75
2018-10-16T17:35:36.028Z,11.10
2018-10-16T17:38:05.406Z,11.60
2018-10-16T17:40:34.687Z,11.75
2018-10-16T17:43:04.912Z,11.20
2018-10-16T17:45:34.263Z,11.68
2018-10-16T17:48:03.612Z,11.20
2018-10-16T17:50:32.869Z,11.67
2018-10-16T17:53:05.307Z,11.03
2018-10-16T17:55:34.432Z,11.08
2018-10-16T17:58:05.535Z,11.43
2018-10-16T18:00:42.341Z,10.98
2018-10-16T18:03:13.102Z,10.70
2018-10-16T18:05:42.802Z,10.70
2018-10-16T18:08:11.955Z,11.57
2018-10-16T18:10:41.075Z,11.63
2018-10-16T18:13:16.531Z,12.07
2018-10-16T18:15:45.744Z,11.50
2018-10-16T18:18:16.318Z,11.85
2018-10-16T18:20:45.452Z,11.30
2018-10-16T18:23:15.311Z,11.30
2018-10-16T18:25:44.579Z,12.07
2018-10-16T18:28:13.729Z,11.03
2018-10-16T18:30:43.627Z,10.98
2018-10-16T18:33:12.915Z,11.22
2018-10-16T18:35:42.168Z,11.30
2018-10-16T18:38:11.439Z,11.78
2018-10-16T18:40:41.319Z,11.57
2018-10-16T18:43:10.575Z,12.07
2018-10-16T18:45:41.997Z,12.30
2018-10-16T18:48:23.582Z,11.30
2018-10-16T18:50:53.006Z,12.20
2018-10-16T18:53:25.953Z,11.95
2018-10-16T18:55:55.350Z,11.83
2018-10-16T18:58:24.531Z,11.60
2018-10-16T19:00:54.218Z,12.28
2018-10-16T19:03:23.630Z,11.80
2018-10-16T19:05:54.540Z,12.80
2018-10-16T19:08:23.933Z,13.18
2018-10-16T19:10:54.668Z,11.48
2018-10-16T19:13:24.375Z,12.85
2018-10-16T19:15:53.543Z,12.95
2018-10-16T19:18:23.194Z,12.60
2018-10-16T19:20:53.630Z,12.30
2018-10-16T19:23:29.219Z,13.10
2018-10-16T19:25:58.887Z,13.80
2018-10-16T19:28:28.778Z,14.15
2018-10-16T19:30:58.796Z,13.28
2018-10-16T19:33:28.581Z,12.93
2018-10-16T19:35:59.069Z,13.28
2018-10-16T19:38:28.522Z,13.78
2018-10-16T19:40:58.368Z,13.45
2018-10-16T19:43:27.591Z,13.70
2018-10-16T19:45:57.127Z,13.90
2018-10-16T19:48:26.255Z,14.35
2018-10-16T19:50:55.722Z,14.78
2018-10-16T19:53:25.052Z,15.50
2018-10-16T19:55:54.400Z,14.15
2018-10-16T19:58:24.790Z,14.68
2018-10-16T20:00:54.768Z,14.05
2018-10-16T20:03:24.325Z,14.53
2018-10-16T20:05:53.722Z,15.10
2018-10-16T20:08:23.000Z,14.90
2018-10-16T20:10:52.512Z,14.20
2018-10-16T20:13:21.847Z,14.10
2018-10-16T20:15:54.473Z,15.13
2018-10-16T20:18:23.718Z,14.83
2018-10-16T20:20:53.104Z,14.78
2018-10-16T20:23:22.530Z,15.47
2018-10-16T20:25:51.933Z,15.03
2018-10-16T20:28:21.287Z,15.43
2018-10-16T20:30:50.517Z,15.50
2018-10-16T20:33:19.962Z,14.90
2018-10-16T20:35:49.498Z,16.15
2018-10-16T20:38:18.907Z,15.60
2018-10-16T20:40:48.434Z,14.73
2018-10-16T20:43:18.244Z,15.48
2018-10-16T20:45:47.667Z,15.93
2018-10-16T20:48:16.952Z,15.78
2018-10-16T20:50:46.520Z,15.90
2018-10-16T20:53:15.956Z,15.88
2018-10-16T20:55:45.220Z,15.50
2018-10-16T20:58:14.453Z,15.15
2018-10-16T21:00:44.563Z,15.23
2018-10-16T21:03:15.952Z,15.95
2018-10-16T21:05:45.196Z,15.43
2018-10-16T21:08:14.320Z,15.93
2018-10-16T21:10:43.571Z,14.90
2018-10-16T21:13:12.762Z,15.15
2018-10-16T21:15:41.967Z,15.43
2018-10-16T21:18:11.200Z,16.02
2018-10-16T21:20:40.350Z,15.03
2018-10-16T21:23:09.825Z,15.65
2018-10-16T21:25:39.064Z,15.45
2018-10-16T21:28:08.183Z,14.63
2018-10-16T21:30:37.450Z,15.15
2018-10-16T21:33:06.795Z,14.83
2018-10-16T21:35:36.155Z,15.77
2018-10-16T21:38:05.306Z,15.25
2018-10-16T21:40:34.455Z,15.08
2018-10-16T21:43:03.733Z,15.13
2018-10-16T21:45:32.997Z,16.15
2018-10-16T21:48:02.280Z,16.12
2018-10-16T21:50:31.442Z,17.02
2018-10-16T21:53:00.737Z,16.57
2018-10-16T21:55:29.843Z,16.35
2018-10-16T21:57:59.079Z,15.13
2018-10-16T22:00:33.534Z,16.10
2018-10-16T22:03:02.890Z,16.27
2018-10-16T22:05:32.153Z,15.47
2018-10-16T22:08:01.519Z,16.12
2018-10-16T22:10:30.758Z,15.72
2018-10-16T22:13:00.056Z,17.10
2018-10-16T22:15:29.159Z,16.27
2018-10-16T22:17:58.284Z,16.00
2018-10-16T22:20:27.443Z,16.05
2018-10-16T22:22:56.660Z,15.73
2018-10-16T22:25:25.845Z,15.28
2018-10-16T22:27:56.034Z,16.10
2018-10-16T22:30:25.155Z,15.72
2018-10-16T22:32:54.287Z,15.30
2018-10-16T22:35:23.558Z,14.90
2018-10-16T22:37:52.680Z,14.87
2018-10-16T22:40:21.871Z,14.45
2018-10-16T22:42:51.077Z,14.68
2018-10-16T22:45:20.244Z,15.45
2018-10-16T22:47:49.473Z,16.05
2018-10-16T22:50:19.582Z,14.93
2018-10-16T22:52:48.783Z,14.73
2018-10-16T22:55:18.021Z,15.43
2018-10-16T22:57:47.171Z,14.47
2018-10-16T23:00:18.331Z,15.30
2018-10-16T23:02:48.398Z,15.75
2018-10-16T23:05:17.735Z,15.15
2018-10-16T23:07:47.511Z,15.32
2018-10-16T23:10:16.864Z,15.08
2018-10-16T23:12:59.924Z,15.20
2018-10-16T23:15:30.706Z,15.35
2018-10-16T23:18:00.179Z,14.07
2018-10-16T23:20:29.497Z,13.65
2018-10-16T23:22:58.512Z,14.55
2018-10-16T23:25:27.818Z,14.43
2018-10-16T23:27:56.974Z,14.05
2018-10-16T23:30:26.102Z,14.33
2018-10-16T23:32:55.262Z,14.25
2018-10-16T23:35:24.495Z,14.17
2018-10-16T23:37:53.564Z,14.30
2018-10-16T23:40:22.787Z,14.57
2018-10-16T23:42:51.957Z,13.55
2018-10-16T23:45:21.279Z,13.70
2018-10-16T23:47:50.670Z,13.53
2018-10-16T23:50:19.994Z,13.53
2018-10-16T23:52:49.253Z,13.45
2018-10-16T23:55:18.564Z,13.85
2018-10-16T23:57:47.661Z,13.13
